sensor_id;sensor_type;location;lat;lon;timestamp;pressure;altitude;pressure_sealevel;temperature
10598;BMP180;5346;48.766;8.674;2023-05-07T00:00:12;94054.00;;;11.40
10598;BMP180;5346;48.766;8.674;2023-05-07T00:02:48;94021.00;;;11.40
10598;BMP180;5346;48.766;8.674;2023-05-07T00:05:16;94063.00;;;11.40
10598;BMP180;5346;48.766;8.674;2023-05-07T00:07:56;94073.00;;;11.30
10598;BMP180;5346;48.766;8.674;2023-05-07T00:10:37;94058.00;;;11.30
10598;BMP180;5346;48.766;8.674;2023-05-07T00:13:04;94057.00;;;11.40
10598;BMP180;5346;48.766;8.674;2023-05-07T00:15:38;94063.00;;;11.50
10598;BMP180;5346;48.766;8.674;2023-05-07T00:18:05;94008.00;;;11.50
10598;BMP180;5346;48.766;8.674;2023-05-07T00:20:39;94030.00;;;11.50
10598;BMP180;5346;48.766;8.674;2023-05-07T00:23:06;94049.00;;;11.50
10598;BMP180;5346;48.766;8.674;2023-05-07T00:25:33;94026.00;;;11.40
10598;BMP180;5346;48.766;8.674;2023-05-07T00:28:07;94057.00;;;11.40
10598;BMP180;5346;48.766;8.674;2023-05-07T00:30:41;94048.00;;;11.30
10598;BMP180;5346;48.766;8.674;2023-05-07T00:33:08;94044.00;;;11.50
10598;BMP180;5346;48.766;8.674;2023-05-07T00:35:43;94018.00;;;11.40
10598;BMP180;5346;48.766;8.674;2023-05-07T00:38:12;94021.00;;;11.30
10598;BMP180;5346;48.766;8.674;2023-05-07T00:40:46;94037.00;;;11.30
10598;BMP180;5346;48.766;8.674;2023-05-07T00:43:13;94042.00;;;11.20
10598;BMP180;5346;48.766;8.674;2023-05-07T00:45:47;94033.00;;;11.30
10598;BMP180;5346;48.766;8.674;2023-05-07T00:48:15;93990.00;;;11.40
10598;BMP180;5346;48.766;8.674;2023-05-07T00:50:43;94043.00;;;11.30
10598;BMP180;5346;48.766;8.674;2023-05-07T00:53:17;94015.00;;;11.30
10598;BMP180;5346;48.766;8.674;2023-05-07T00:55:51;93987.00;;;11.40
10598;BMP180;5346;48.766;8.674;2023-05-07T00:58:25;94023.00;;;11.60
10598;BMP180;5346;48.766;8.674;2023-05-07T01:01:00;94001.00;;;11.60
10598;BMP180;5346;48.766;8.674;2023-05-07T01:03:33;94028.00;;;11.50
10598;BMP180;5346;48.766;8.674;2023-05-07T01:06:08;93983.00;;;11.50
10598;BMP180;5346;48.766;8.674;2023-05-07T01:08:37;93980.00;;;11.50
10598;BMP180;5346;48.766;8.674;2023-05-07T01:11:13;94034.00;;;11.40
10598;BMP180;5346;48.766;8.674;2023-05-07T01:13:48;94028.00;;;11.40
10598;BMP180;5346;48.766;8.674;2023-05-07T01:16:30;93996.00;;;11.40
10598;BMP180;5346;48.766;8.674;2023-05-07T01:19:05;93983.00;;;11.30
10598;BMP180;5346;48.766;8.674;2023-05-07T01:21:38;94004.00;;;11.40
10598;BMP180;5346;48.766;8.674;2023-05-07T01:24:12;93986.00;;;11.50
10598;BMP180;5346;48.766;8.674;2023-05-07T01:26:42;94009.00;;;11.40
10598;BMP180;5346;48.766;8.674;2023-05-07T01:29:16;93990.00;;;11.50
10598;BMP180;5346;48.766;8.674;2023-05-07T01:31:44;94026.00;;;11.70
10598;BMP180;5346;48.766;8.674;2023-05-07T01:34:20;94022.00;;;11.60
10598;BMP180;5346;48.766;8.674;2023-05-07T01:36:56;93982.00;;;11.60
10598;BMP180;5346;48.766;8.674;2023-05-07T01:39:32;93979.00;;;11.60
10598;BMP180;5346;48.766;8.674;2023-05-07T01:42:06;94009.00;;;11.80
10598;BMP180;5346;48.766;8.674;2023-05-07T01:44:47;94014.00;;;12.10
10598;BMP180;5346;48.766;8.674;2023-05-07T01:47:22;94024.00;;;12.00
10598;BMP180;5346;48.766;8.674;2023-05-07T01:49:57;94029.00;;;12.10
10598;BMP180;5346;48.766;8.674;2023-05-07T01:52:31;93991.00;;;12.20
10598;BMP180;5346;48.766;8.674;2023-05-07T01:54:59;93982.00;;;12.20
10598;BMP180;5346;48.766;8.674;2023-05-07T01:57:33;94026.00;;;12.20
10598;BMP180;5346;48.766;8.674;2023-05-07T02:00:01;93995.00;;;12.10
10598;BMP180;5346;48.766;8.674;2023-05-07T02:02:37;94022.00;;;12.00
10598;BMP180;5346;48.766;8.674;2023-05-07T02:05:06;94041.00;;;11.90
10598;BMP180;5346;48.766;8.674;2023-05-07T02:07:46;94029.00;;;11.80
10598;BMP180;5346;48.766;8.674;2023-05-07T02:10:26;94001.00;;;11.70
10598;BMP180;5346;48.766;8.674;2023-05-07T02:13:00;94002.00;;;11.60
10598;BMP180;5346;48.766;8.674;2023-05-07T02:15:37;94026.00;;;11.70
10598;BMP180;5346;48.766;8.674;2023-05-07T02:18:11;94031.00;;;11.40
10598;BMP180;5346;48.766;8.674;2023-05-07T02:20:38;94026.00;;;11.30
10598;BMP180;5346;48.766;8.674;2023-05-07T02:23:13;94005.00;;;11.30
10598;BMP180;5346;48.766;8.674;2023-05-07T02:25:40;94015.00;;;11.40
10598;BMP180;5346;48.766;8.674;2023-05-07T02:28:14;94024.00;;;11.30
10598;BMP180;5346;48.766;8.674;2023-05-07T02:30:42;94027.00;;;11.30
10598;BMP180;5346;48.766;8.674;2023-05-07T02:33:15;94007.00;;;11.30
10598;BMP180;5346;48.766;8.674;2023-05-07T02:35:42;94032.00;;;11.30
10598;BMP180;5346;48.766;8.674;2023-05-07T02:38:16;94002.00;;;11.10
10598;BMP180;5346;48.766;8.674;2023-05-07T02:40:50;94032.00;;;11.20
10598;BMP180;5346;48.766;8.674;2023-05-07T02:43:17;94026.00;;;11.30
10598;BMP180;5346;48.766;8.674;2023-05-07T02:46:07;94019.00;;;11.10
10598;BMP180;5346;48.766;8.674;2023-05-07T02:48:41;94039.00;;;11.00
10598;BMP180;5346;48.766;8.674;2023-05-07T02:51:19;93995.00;;;11.00
10598;BMP180;5346;48.766;8.674;2023-05-07T02:53:49;94022.00;;;11.10
10598;BMP180;5346;48.766;8.674;2023-05-07T02:56:26;94013.00;;;10.90
10598;BMP180;5346;48.766;8.674;2023-05-07T02:59:00;94006.00;;;10.90
10598;BMP180;5346;48.766;8.674;2023-05-07T03:01:34;94003.00;;;10.80
10598;BMP180;5346;48.766;8.674;2023-05-07T03:04:01;94002.00;;;10.70
10598;BMP180;5346;48.766;8.674;2023-05-07T03:06:35;94020.00;;;10.70
10598;BMP180;5346;48.766;8.674;2023-05-07T03:09:16;94017.00;;;10.60
10598;BMP180;5346;48.766;8.674;2023-05-07T03:11:51;94032.00;;;10.60
10598;BMP180;5346;48.766;8.674;2023-05-07T03:14:31;94024.00;;;10.50
10598;BMP180;5346;48.766;8.674;2023-05-07T03:16:58;94011.00;;;10.40
10598;BMP180;5346;48.766;8.674;2023-05-07T03:19:31;94010.00;;;10.40
10598;BMP180;5346;48.766;8.674;2023-05-07T03:21:58;94020.00;;;10.40
10598;BMP180;5346;48.766;8.674;2023-05-07T03:24:32;93995.00;;;10.50
10598;BMP180;5346;48.766;8.674;2023-05-07T03:26:59;93984.00;;;10.50
10598;BMP180;5346;48.766;8.674;2023-05-07T03:29:34;94007.00;;;10.70
10598;BMP180;5346;48.766;8.674;2023-05-07T03:32:08;94011.00;;;10.60
10598;BMP180;5346;48.766;8.674;2023-05-07T03:34:42;93985.00;;;10.50
10598;BMP180;5346;48.766;8.674;2023-05-07T03:37:16;93964.00;;;10.70
10598;BMP180;5346;48.766;8.674;2023-05-07T03:39:43;93985.00;;;10.80
10598;BMP180;5346;48.766;8.674;2023-05-07T03:42:17;93991.00;;;10.80
10598;BMP180;5346;48.766;8.674;2023-05-07T03:44:44;93994.00;;;10.70
10598;BMP180;5346;48.766;8.674;2023-05-07T03:47:18;94002.00;;;10.60
10598;BMP180;5346;48.766;8.674;2023-05-07T03:49:45;94010.00;;;10.50
10598;BMP180;5346;48.766;8.674;2023-05-07T03:52:12;93988.00;;;10.40
10598;BMP180;5346;48.766;8.674;2023-05-07T03:54:46;93998.00;;;10.60
10598;BMP180;5346;48.766;8.674;2023-05-07T03:57:13;93993.00;;;10.40
10598;BMP180;5346;48.766;8.674;2023-05-07T03:59:47;94008.00;;;10.30
10598;BMP180;5346;48.766;8.674;2023-05-07T04:02:21;93993.00;;;10.40
10598;BMP180;5346;48.766;8.674;2023-05-07T04:04:56;93996.00;;;10.40
10598;BMP180;5346;48.766;8.674;2023-05-07T04:07:23;93997.00;;;10.40
10598;BMP180;5346;48.766;8.674;2023-05-07T04:09:57;94017.00;;;10.50
10598;BMP180;5346;48.766;8.674;2023-05-07T04:12:32;94009.00;;;10.40
10598;BMP180;5346;48.766;8.674;2023-05-07T04:15:06;94003.00;;;10.40
10598;BMP180;5346;48.766;8.674;2023-05-07T04:17:40;93982.00;;;10.40
10598;BMP180;5346;48.766;8.674;2023-05-07T04:20:10;94026.00;;;10.40
10598;BMP180;5346;48.766;8.674;2023-05-07T04:22:44;93973.00;;;10.50
10598;BMP180;5346;48.766;8.674;2023-05-07T04:25:11;94007.00;;;10.50
10598;BMP180;5346;48.766;8.674;2023-05-07T04:27:45;93983.00;;;10.60
10598;BMP180;5346;48.766;8.674;2023-05-07T04:30:13;93999.00;;;10.60
10598;BMP180;5346;48.766;8.674;2023-05-07T04:32:47;93993.00;;;10.70
10598;BMP180;5346;48.766;8.674;2023-05-07T04:35:22;94026.00;;;10.80
10598;BMP180;5346;48.766;8.674;2023-05-07T04:37:56;93997.00;;;10.90
10598;BMP180;5346;48.766;8.674;2023-05-07T04:40:30;94020.00;;;11.10
10598;BMP180;5346;48.766;8.674;2023-05-07T04:42:57;94016.00;;;11.20
10598;BMP180;5346;48.766;8.674;2023-05-07T04:45:31;93968.00;;;11.30
10598;BMP180;5346;48.766;8.674;2023-05-07T04:48:05;93992.00;;;11.30
10598;BMP180;5346;48.766;8.674;2023-05-07T04:50:32;94017.00;;;11.30
10598;BMP180;5346;48.766;8.674;2023-05-07T04:53:06;94021.00;;;11.30
10598;BMP180;5346;48.766;8.674;2023-05-07T04:55:33;93998.00;;;11.40
10598;BMP180;5346;48.766;8.674;2023-05-07T04:58:08;94026.00;;;11.40
10598;BMP180;5346;48.766;8.674;2023-05-07T05:00:35;94026.00;;;11.60
10598;BMP180;5346;48.766;8.674;2023-05-07T05:03:09;94011.00;;;11.80
10598;BMP180;5346;48.766;8.674;2023-05-07T05:05:37;94023.00;;;12.00
10598;BMP180;5346;48.766;8.674;2023-05-07T05:08:04;94019.00;;;12.20
10598;BMP180;5346;48.766;8.674;2023-05-07T05:10:44;93963.00;;;12.60
10598;BMP180;5346;48.766;8.674;2023-05-07T05:13:17;94026.00;;;12.80
10598;BMP180;5346;48.766;8.674;2023-05-07T05:15:45;94034.00;;;13.20
10598;BMP180;5346;48.766;8.674;2023-05-07T05:18:19;93984.00;;;13.60
10598;BMP180;5346;48.766;8.674;2023-05-07T05:20:47;94021.00;;;14.00
10598;BMP180;5346;48.766;8.674;2023-05-07T05:23:21;93984.00;;;14.20
10598;BMP180;5346;48.766;8.674;2023-05-07T05:25:57;94018.00;;;14.30
10598;BMP180;5346;48.766;8.674;2023-05-07T05:28:24;94001.00;;;14.30
10598;BMP180;5346;48.766;8.674;2023-05-07T05:31:07;94018.00;;;14.20
10598;BMP180;5346;48.766;8.674;2023-05-07T05:33:48;94009.00;;;14.30
10598;BMP180;5346;48.766;8.674;2023-05-07T05:36:22;94042.00;;;14.30
10598;BMP180;5346;48.766;8.674;2023-05-07T05:38:49;94043.00;;;14.40
10598;BMP180;5346;48.766;8.674;2023-05-07T05:41:23;94020.00;;;14.70
10598;BMP180;5346;48.766;8.674;2023-05-07T05:43:51;94026.00;;;15.20
10598;BMP180;5346;48.766;8.674;2023-05-07T05:46:25;94013.00;;;15.60
10598;BMP180;5346;48.766;8.674;2023-05-07T05:49:02;94006.00;;;16.10
10598;BMP180;5346;48.766;8.674;2023-05-07T05:51:36;94009.00;;;16.60
10598;BMP180;5346;48.766;8.674;2023-05-07T05:54:10;93991.00;;;16.80
10598;BMP180;5346;48.766;8.674;2023-05-07T05:56:37;93999.00;;;16.90
10598;BMP180;5346;48.766;8.674;2023-05-07T05:59:14;94032.00;;;16.70
10598;BMP180;5346;48.766;8.674;2023-05-07T06:01:41;94026.00;;;16.30
10598;BMP180;5346;48.766;8.674;2023-05-07T06:04:08;94051.00;;;15.90
10598;BMP180;5346;48.766;8.674;2023-05-07T06:06:42;94044.00;;;15.60
10598;BMP180;5346;48.766;8.674;2023-05-07T06:09:09;94055.00;;;15.10
10598;BMP180;5346;48.766;8.674;2023-05-07T06:11:50;94039.00;;;15.10
10598;BMP180;5346;48.766;8.674;2023-05-07T06:14:26;94026.00;;;15.00
10598;BMP180;5346;48.766;8.674;2023-05-07T06:17:00;94039.00;;;15.30
10598;BMP180;5346;48.766;8.674;2023-05-07T06:19:27;93998.00;;;16.30
10598;BMP180;5346;48.766;8.674;2023-05-07T06:22:01;94030.00;;;17.20
10598;BMP180;5346;48.766;8.674;2023-05-07T06:24:35;94046.00;;;17.70
10598;BMP180;5346;48.766;8.674;2023-05-07T06:27:09;94043.00;;;18.10
10598;BMP180;5346;48.766;8.674;2023-05-07T06:29:36;94019.00;;;18.00
10598;BMP180;5346;48.766;8.674;2023-05-07T06:32:12;94055.00;;;18.70
10598;BMP180;5346;48.766;8.674;2023-05-07T06:34:40;94028.00;;;18.90
10598;BMP180;5346;48.766;8.674;2023-05-07T06:37:07;94024.00;;;19.10
10598;BMP180;5346;48.766;8.674;2023-05-07T06:39:41;94037.00;;;20.00
10598;BMP180;5346;48.766;8.674;2023-05-07T06:42:08;94021.00;;;19.90
10598;BMP180;5346;48.766;8.674;2023-05-07T06:44:42;94047.00;;;19.80
10598;BMP180;5346;48.766;8.674;2023-05-07T06:47:16;94024.00;;;20.20
10598;BMP180;5346;48.766;8.674;2023-05-07T06:49:50;94018.00;;;20.70
10598;BMP180;5346;48.766;8.674;2023-05-07T06:52:24;94015.00;;;21.40
10598;BMP180;5346;48.766;8.674;2023-05-07T06:54:51;94015.00;;;21.00
10598;BMP180;5346;48.766;8.674;2023-05-07T06:57:25;94036.00;;;21.50
10598;BMP180;5346;48.766;8.674;2023-05-07T06:59:52;94033.00;;;21.90
10598;BMP180;5346;48.766;8.674;2023-05-07T07:02:26;94044.00;;;21.30
10598;BMP180;5346;48.766;8.674;2023-05-07T07:04:53;94060.00;;;20.90
10598;BMP180;5346;48.766;8.674;2023-05-07T07:07:27;94027.00;;;20.50
10598;BMP180;5346;48.766;8.674;2023-05-07T07:10:08;94045.00;;;19.40
10598;BMP180;5346;48.766;8.674;2023-05-07T07:12:50;94057.00;;;19.00
10598;BMP180;5346;48.766;8.674;2023-05-07T07:15:23;94037.00;;;18.90
10598;BMP180;5346;48.766;8.674;2023-05-07T07:17:52;94059.00;;;18.60
10598;BMP180;5346;48.766;8.674;2023-05-07T07:20:25;94063.00;;;18.80
10598;BMP180;5346;48.766;8.674;2023-05-07T07:22:59;94057.00;;;18.90
10598;BMP180;5346;48.766;8.674;2023-05-07T07:25:33;94062.00;;;18.40
10598;BMP180;5346;48.766;8.674;2023-05-07T07:28:00;94050.00;;;18.50
10598;BMP180;5346;48.766;8.674;2023-05-07T07:30:34;94070.00;;;19.30
10598;BMP180;5346;48.766;8.674;2023-05-07T07:33:08;94024.00;;;19.50
10598;BMP180;5346;48.766;8.674;2023-05-07T07:35:42;94060.00;;;19.80
10598;BMP180;5346;48.766;8.674;2023-05-07T07:38:09;94048.00;;;21.00
10598;BMP180;5346;48.766;8.674;2023-05-07T07:40:43;94051.00;;;21.60
10598;BMP180;5346;48.766;8.674;2023-05-07T07:43:17;94058.00;;;22.50
10598;BMP180;5346;48.766;8.674;2023-05-07T07:45:51;94069.00;;;23.00
10598;BMP180;5346;48.766;8.674;2023-05-07T07:48:25;94070.00;;;22.20
10598;BMP180;5346;48.766;8.674;2023-05-07T07:50:59;94053.00;;;21.50
10598;BMP180;5346;48.766;8.674;2023-05-07T07:53:33;94053.00;;;20.90
10598;BMP180;5346;48.766;8.674;2023-05-07T07:56:00;94057.00;;;20.10
10598;BMP180;5346;48.766;8.674;2023-05-07T07:58:34;94077.00;;;19.70
10598;BMP180;5346;48.766;8.674;2023-05-07T08:01:09;94083.00;;;20.10
10598;BMP180;5346;48.766;8.674;2023-05-07T08:03:43;94073.00;;;20.50
10598;BMP180;5346;48.766;8.674;2023-05-07T08:06:10;94066.00;;;21.40
10598;BMP180;5346;48.766;8.674;2023-05-07T08:08:51;94057.00;;;22.20
10598;BMP180;5346;48.766;8.674;2023-05-07T08:11:32;94059.00;;;23.10
10598;BMP180;5346;48.766;8.674;2023-05-07T08:14:06;94059.00;;;23.30
10598;BMP180;5346;48.766;8.674;2023-05-07T08:16:40;94048.00;;;24.10
10598;BMP180;5346;48.766;8.674;2023-05-07T08:19:14;94066.00;;;24.80
10598;BMP180;5346;48.766;8.674;2023-05-07T08:21:41;94056.00;;;24.30
10598;BMP180;5346;48.766;8.674;2023-05-07T08:24:15;94074.00;;;24.90
10598;BMP180;5346;48.766;8.674;2023-05-07T08:26:44;94064.00;;;24.80
10598;BMP180;5346;48.766;8.674;2023-05-07T08:29:18;94053.00;;;24.20
10598;BMP180;5346;48.766;8.674;2023-05-07T08:31:45;94031.00;;;23.40
10598;BMP180;5346;48.766;8.674;2023-05-07T08:34:12;94050.00;;;23.70
10598;BMP180;5346;48.766;8.674;2023-05-07T08:36:46;94040.00;;;23.30
10598;BMP180;5346;48.766;8.674;2023-05-07T08:39:18;94054.00;;;25.10
10598;BMP180;5346;48.766;8.674;2023-05-07T08:41:55;94023.00;;;25.50
10598;BMP180;5346;48.766;8.674;2023-05-07T08:44:26;94051.00;;;24.50
10598;BMP180;5346;48.766;8.674;2023-05-07T08:47:02;94036.00;;;24.70
10598;BMP180;5346;48.766;8.674;2023-05-07T08:49:29;94072.00;;;24.70
10598;BMP180;5346;48.766;8.674;2023-05-07T08:52:03;94065.00;;;25.40
10598;BMP180;5346;48.766;8.674;2023-05-07T08:54:31;94006.00;;;26.00
10598;BMP180;5346;48.766;8.674;2023-05-07T08:56:58;94057.00;;;25.80
10598;BMP180;5346;48.766;8.674;2023-05-07T08:59:32;94064.00;;;25.60
10598;BMP180;5346;48.766;8.674;2023-05-07T09:01:59;94047.00;;;25.60
10598;BMP180;5346;48.766;8.674;2023-05-07T09:04:35;94048.00;;;25.80
10598;BMP180;5346;48.766;8.674;2023-05-07T09:07:03;94065.00;;;25.70
10598;BMP180;5346;48.766;8.674;2023-05-07T09:09:33;94027.00;;;26.20
10598;BMP180;5346;48.766;8.674;2023-05-07T09:12:07;94056.00;;;26.40
10598;BMP180;5346;48.766;8.674;2023-05-07T09:14:41;94054.00;;;27.30
10598;BMP180;5346;48.766;8.674;2023-05-07T09:17:18;94058.00;;;26.20
10598;BMP180;5346;48.766;8.674;2023-05-07T09:19:45;94055.00;;;26.20
10598;BMP180;5346;48.766;8.674;2023-05-07T09:22:26;94027.00;;;27.10
10598;BMP180;5346;48.766;8.674;2023-05-07T09:24:53;94041.00;;;27.40
10598;BMP180;5346;48.766;8.674;2023-05-07T09:27:27;94076.00;;;26.10
10598;BMP180;5346;48.766;8.674;2023-05-07T09:30:07;94079.00;;;26.20
10598;BMP180;5346;48.766;8.674;2023-05-07T09:32:41;94079.00;;;26.70
10598;BMP180;5346;48.766;8.674;2023-05-07T09:35:17;94081.00;;;25.60
10598;BMP180;5346;48.766;8.674;2023-05-07T09:37:45;94101.00;;;24.50
10598;BMP180;5346;48.766;8.674;2023-05-07T09:40:27;94098.00;;;23.50
10598;BMP180;5346;48.766;8.674;2023-05-07T09:42:55;94113.00;;;23.00
10598;BMP180;5346;48.766;8.674;2023-05-07T09:45:29;94113.00;;;22.00
10598;BMP180;5346;48.766;8.674;2023-05-07T09:47:58;94098.00;;;21.50
10598;BMP180;5346;48.766;8.674;2023-05-07T09:50:49;94104.00;;;20.50
10598;BMP180;5346;48.766;8.674;2023-05-07T09:53:24;94121.00;;;18.90
10598;BMP180;5346;48.766;8.674;2023-05-07T09:55:52;94130.00;;;18.30
10598;BMP180;5346;48.766;8.674;2023-05-07T09:58:30;94128.00;;;17.90
10598;BMP180;5346;48.766;8.674;2023-05-07T10:00:58;94127.00;;;18.10
10598;BMP180;5346;48.766;8.674;2023-05-07T10:03:33;94138.00;;;17.40
10598;BMP180;5346;48.766;8.674;2023-05-07T10:06:04;94127.00;;;17.20
10598;BMP180;5346;48.766;8.674;2023-05-07T10:08:45;94139.00;;;16.50
10598;BMP180;5346;48.766;8.674;2023-05-07T10:11:27;94135.00;;;15.90
10598;BMP180;5346;48.766;8.674;2023-05-07T10:14:03;94152.00;;;15.80
10598;BMP180;5346;48.766;8.674;2023-05-07T10:16:35;94139.00;;;15.80
10598;BMP180;5346;48.766;8.674;2023-05-07T10:19:12;94117.00;;;15.50
10598;BMP180;5346;48.766;8.674;2023-05-07T10:22:01;94121.00;;;15.10
10598;BMP180;5346;48.766;8.674;2023-05-07T10:24:37;94126.00;;;14.80
10598;BMP180;5346;48.766;8.674;2023-05-07T10:27:13;94147.00;;;14.80
10598;BMP180;5346;48.766;8.674;2023-05-07T10:30:40;94157.00;;;14.60
10598;BMP180;5346;48.766;8.674;2023-05-07T10:33:06;94126.00;;;14.50
10598;BMP180;5346;48.766;8.674;2023-05-07T10:35:46;94159.00;;;14.40
10598;BMP180;5346;48.766;8.674;2023-05-07T10:38:14;94131.00;;;14.30
10598;BMP180;5346;48.766;8.674;2023-05-07T10:40:42;94148.00;;;14.30
10598;BMP180;5346;48.766;8.674;2023-05-07T10:43:16;94135.00;;;14.40
10598;BMP180;5346;48.766;8.674;2023-05-07T10:51:31;94140.00;;;14.10
10598;BMP180;5346;48.766;8.674;2023-05-07T10:56:45;94116.00;;;13.70
10598;BMP180;5346;48.766;8.674;2023-05-07T11:01:59;94153.00;;;13.90
10598;BMP180;5346;48.766;8.674;2023-05-07T11:04:33;94143.00;;;14.10
10598;BMP180;5346;48.766;8.674;2023-05-07T11:15:39;94143.00;;;14.90
10598;BMP180;5346;48.766;8.674;2023-05-07T11:18:06;94142.00;;;14.80
10598;BMP180;5346;48.766;8.674;2023-05-07T11:20:57;94153.00;;;14.80
10598;BMP180;5346;48.766;8.674;2023-05-07T11:26:10;94123.00;;;14.30
10598;BMP180;5346;48.766;8.674;2023-05-07T11:28:44;94136.00;;;14.80
10598;BMP180;5346;48.766;8.674;2023-05-07T11:31:26;94150.00;;;15.20
10598;BMP180;5346;48.766;8.674;2023-05-07T11:34:02;94134.00;;;15.20
10598;BMP180;5346;48.766;8.674;2023-05-07T11:36:32;94147.00;;;15.10
10598;BMP180;5346;48.766;8.674;2023-05-07T11:39:32;94130.00;;;15.40
10598;BMP180;5346;48.766;8.674;2023-05-07T11:42:33;94126.00;;;15.50
10598;BMP180;5346;48.766;8.674;2023-05-07T11:45:08;94147.00;;;15.90
10598;BMP180;5346;48.766;8.674;2023-05-07T11:47:36;94156.00;;;16.50
10598;BMP180;5346;48.766;8.674;2023-05-07T11:50:06;94147.00;;;16.80
10598;BMP180;5346;48.766;8.674;2023-05-07T11:52:51;94121.00;;;17.10
10598;BMP180;5346;48.766;8.674;2023-05-07T11:55:25;94111.00;;;17.70
10598;BMP180;5346;48.766;8.674;2023-05-07T11:57:59;94081.00;;;18.30
10598;BMP180;5346;48.766;8.674;2023-05-07T12:00:26;94063.00;;;19.00
10598;BMP180;5346;48.766;8.674;2023-05-07T12:03:04;94053.00;;;20.20
10598;BMP180;5346;48.766;8.674;2023-05-07T12:05:38;94054.00;;;20.80
10598;BMP180;5346;48.766;8.674;2023-05-07T12:08:20;94081.00;;;21.50
10598;BMP180;5346;48.766;8.674;2023-05-07T12:10:54;94081.00;;;20.30
10598;BMP180;5346;48.766;8.674;2023-05-07T12:13:35;94087.00;;;19.90
10598;BMP180;5346;48.766;8.674;2023-05-07T12:16:04;94078.00;;;19.30
10598;BMP180;5346;48.766;8.674;2023-05-07T12:18:39;94085.00;;;18.60
10598;BMP180;5346;48.766;8.674;2023-05-07T12:21:13;94099.00;;;18.50
10598;BMP180;5346;48.766;8.674;2023-05-07T12:23:47;94116.00;;;18.00
10598;BMP180;5346;48.766;8.674;2023-05-07T12:26:15;94108.00;;;17.60
10598;BMP180;5346;48.766;8.674;2023-05-07T12:28:48;94104.00;;;17.50
10598;BMP180;5346;48.766;8.674;2023-05-07T12:31:22;94106.00;;;17.60
10598;BMP180;5346;48.766;8.674;2023-05-07T12:34:01;94106.00;;;17.10
10598;BMP180;5346;48.766;8.674;2023-05-07T12:36:40;94125.00;;;16.80
10598;BMP180;5346;48.766;8.674;2023-05-07T12:39:13;94131.00;;;16.70
10598;BMP180;5346;48.766;8.674;2023-05-07T12:41:58;94144.00;;;16.30
10598;BMP180;5346;48.766;8.674;2023-05-07T12:44:32;94120.00;;;16.20
10598;BMP180;5346;48.766;8.674;2023-05-07T12:47:06;94128.00;;;16.10
10598;BMP180;5346;48.766;8.674;2023-05-07T12:49:41;94180.00;;;16.00
10598;BMP180;5346;48.766;8.674;2023-05-07T12:52:15;94166.00;;;15.80
10598;BMP180;5346;48.766;8.674;2023-05-07T12:54:44;94190.00;;;15.60
10598;BMP180;5346;48.766;8.674;2023-05-07T12:57:19;94193.00;;;15.50
10598;BMP180;5346;48.766;8.674;2023-05-07T12:59:47;94130.00;;;15.20
10598;BMP180;5346;48.766;8.674;2023-05-07T13:02:33;94188.00;;;15.30
10598;BMP180;5346;48.766;8.674;2023-05-07T13:05:01;94183.00;;;15.40
10598;BMP180;5346;48.766;8.674;2023-05-07T13:07:37;94201.00;;;15.20
10598;BMP180;5346;48.766;8.674;2023-05-07T13:10:10;94199.00;;;15.00
10598;BMP180;5346;48.766;8.674;2023-05-07T13:12:50;94214.00;;;14.80
10598;BMP180;5346;48.766;8.674;2023-05-07T13:15:18;94203.00;;;14.40
10598;BMP180;5346;48.766;8.674;2023-05-07T13:17:52;94204.00;;;14.40
10598;BMP180;5346;48.766;8.674;2023-05-07T13:20:19;94214.00;;;14.20
10598;BMP180;5346;48.766;8.674;2023-05-07T13:22:53;94195.00;;;14.00
10598;BMP180;5346;48.766;8.674;2023-05-07T13:25:20;94173.00;;;13.80
10598;BMP180;5346;48.766;8.674;2023-05-07T13:27:54;94203.00;;;13.70
10598;BMP180;5346;48.766;8.674;2023-05-07T13:30:35;94208.00;;;13.60
10598;BMP180;5346;48.766;8.674;2023-05-07T13:33:09;94216.00;;;13.50
10598;BMP180;5346;48.766;8.674;2023-05-07T13:35:36;94214.00;;;13.20
10598;BMP180;5346;48.766;8.674;2023-05-07T13:38:10;94217.00;;;13.20
10598;BMP180;5346;48.766;8.674;2023-05-07T13:40:44;94201.00;;;13.20
10598;BMP180;5346;48.766;8.674;2023-05-07T13:43:18;94200.00;;;13.10
10598;BMP180;5346;48.766;8.674;2023-05-07T13:45:52;94207.00;;;13.00
10598;BMP180;5346;48.766;8.674;2023-05-07T13:48:19;94201.00;;;13.00
10598;BMP180;5346;48.766;8.674;2023-05-07T13:50:53;94194.00;;;13.00
10598;BMP180;5346;48.766;8.674;2023-05-07T13:53:27;94189.00;;;13.00
10598;BMP180;5346;48.766;8.674;2023-05-07T13:56:02;94207.00;;;13.00
10598;BMP180;5346;48.766;8.674;2023-05-07T13:58:31;94197.00;;;13.10
10598;BMP180;5346;48.766;8.674;2023-05-07T14:01:24;94199.00;;;13.10
10598;BMP180;5346;48.766;8.674;2023-05-07T14:03:51;94190.00;;;13.20
10598;BMP180;5346;48.766;8.674;2023-05-07T14:06:25;94168.00;;;13.20
10598;BMP180;5346;48.766;8.674;2023-05-07T14:08:53;94177.00;;;13.20
10598;BMP180;5346;48.766;8.674;2023-05-07T14:11:20;94141.00;;;13.30
10598;BMP180;5346;48.766;8.674;2023-05-07T14:13:54;94178.00;;;13.30
10598;BMP180;5346;48.766;8.674;2023-05-07T14:16:29;94159.00;;;13.40
10598;BMP180;5346;48.766;8.674;2023-05-07T14:18:56;94127.00;;;13.40
10598;BMP180;5346;48.766;8.674;2023-05-07T14:21:31;94155.00;;;13.60
10598;BMP180;5346;48.766;8.674;2023-05-07T14:23:58;94124.00;;;13.70
10598;BMP180;5346;48.766;8.674;2023-05-07T14:26:34;94119.00;;;13.70
10598;BMP180;5346;48.766;8.674;2023-05-07T14:29:02;94129.00;;;13.90
10598;BMP180;5346;48.766;8.674;2023-05-07T14:31:36;94105.00;;;13.90
10598;BMP180;5346;48.766;8.674;2023-05-07T14:34:03;94128.00;;;14.10
10598;BMP180;5346;48.766;8.674;2023-05-07T14:36:31;94115.00;;;14.10
10598;BMP180;5346;48.766;8.674;2023-05-07T14:39:05;94127.00;;;14.20
10598;BMP180;5346;48.766;8.674;2023-05-07T14:41:33;94085.00;;;14.20
10598;BMP180;5346;48.766;8.674;2023-05-07T14:44:00;94140.00;;;14.10
10598;BMP180;5346;48.766;8.674;2023-05-07T14:46:33;94111.00;;;14.10
10598;BMP180;5346;48.766;8.674;2023-05-07T14:49:07;94106.00;;;14.10
10598;BMP180;5346;48.766;8.674;2023-05-07T14:51:47;94140.00;;;14.30
10598;BMP180;5346;48.766;8.674;2023-05-07T14:54:20;94129.00;;;14.30
10598;BMP180;5346;48.766;8.674;2023-05-07T14:56:54;94150.00;;;14.30
10598;BMP180;5346;48.766;8.674;2023-05-07T14:59:28;94106.00;;;14.20
10598;BMP180;5346;48.766;8.674;2023-05-07T15:01:55;94124.00;;;14.20
10598;BMP180;5346;48.766;8.674;2023-05-07T15:04:33;94149.00;;;13.80
10598;BMP180;5346;48.766;8.674;2023-05-07T15:07:02;94107.00;;;14.10
10598;BMP180;5346;48.766;8.674;2023-05-07T15:09:29;94132.00;;;14.50
10598;BMP180;5346;48.766;8.674;2023-05-07T15:12:03;94137.00;;;14.30
10598;BMP180;5346;48.766;8.674;2023-05-07T15:14:44;94107.00;;;14.30
10598;BMP180;5346;48.766;8.674;2023-05-07T15:17:18;94139.00;;;14.40